Jacksonville, Florida
Current Conditions -  °F | °C
As of 4:56 AM on Thursday 23 Oct 2014 (Local Time) from KJAX Reporting Station
Clear Clear  
Wind Chill: 12°   Ceiling: Unl
Heat Index: 12°   Visibility: 10mi
Dew Point:   Wind: 8mph
Humidity: 86%   Direction: 360°N
Pressure: 30.01"   Gusts: NA
Location:  30.32°N, 81.66°W
Report Text: KJAX 230856Z 36007KT 10SM CLR 12/09 A3001 RMK AO2 SLP163 T01170094 56009 $
Loading
Personal Weather Stations






























Interactive Weather Map New forecast layout! Learn more

10-Day Weather Forecast

Advertisements
Track Severe Weather on mobile